DAL3128 KMSY-KATL
Flight info
| Callsign | DAL3128 |
|---|---|
| Flight time | 0h 58m |
| Altitude | 37000 |
| Route | GARTS PAYTN SHYRE HOBTT3 |
| Aircraft | B752/M-SDE2E3FGHIJ3J4J7RWXY/LB1 |
Departure
| Time | 2026-05-03 22:21 |
|---|---|
| Airport | Louis Armstrong New Orleans International Airport (KMSY) |
Arrival
| Time | 2026-05-03 23:19 |
|---|---|
| Airport | Hartsfield Jackson Atlanta International Airport (KATL) |
| Time | Latitude | Longitude | Altitude | Speed | Heading |
|---|---|---|---|---|---|
| 2026-05-03 21:59 | 29.99403 | -90.25768 | 14 ft | 0 kts | 96° |
| 2026-05-03 22:10 | 29.99404 | -90.25781 | 14 ft | 3 kts | 99° |
| 2026-05-03 22:10 | 29.99413 | -90.25805 | 14 ft | 3 kts | 133° |
| 2026-05-03 22:11 | 29.99430 | -90.25816 | 14 ft | 2 kts | 159° |
| 2026-05-03 22:11 | 29.99443 | -90.25829 | 14 ft | 2 kts | 142° |
| 2026-05-03 22:11 | 29.99454 | -90.25835 | 14 ft | 0 kts | 174° |
| 2026-05-03 22:13 | 29.99451 | -90.25835 | 14 ft | 1 kts | 176° |
| 2026-05-03 22:14 | 29.99429 | -90.25840 | 14 ft | 0 kts | 192° |
| 2026-05-03 22:15 | 29.99416 | -90.25843 | 14 ft | 6 kts | 194° |
| 2026-05-03 22:15 | 29.99358 | -90.25868 | 14 ft | 7 kts | 221° |
| 2026-05-03 22:15 | 29.99349 | -90.25919 | 14 ft | 8 kts | 303° |
| 2026-05-03 22:16 | 29.99374 | -90.25991 | 14 ft | 15 kts | 284° |
| 2026-05-03 22:16 | 29.99404 | -90.26138 | 14 ft | 19 kts | 283° |
| 2026-05-03 22:16 | 29.99439 | -90.26293 | 14 ft | 20 kts | 285° |
| 2026-05-03 22:16 | 29.99475 | -90.26448 | 14 ft | 19 kts | 286° |
| 2026-05-03 22:17 | 29.99513 | -90.26599 | 14 ft | 19 kts | 285° |
| 2026-05-03 22:17 | 29.99548 | -90.26752 | 14 ft | 19 kts | 285° |
| 2026-05-03 22:17 | 29.99594 | -90.26940 | 14 ft | 27 kts | 285° |
| 2026-05-03 22:17 | 29.99647 | -90.27158 | 14 ft | 27 kts | 285° |
| 2026-05-03 22:18 | 29.99699 | -90.27373 | 14 ft | 27 kts | 285° |
| 2026-05-03 22:18 | 29.99750 | -90.27586 | 14 ft | 27 kts | 285° |
| 2026-05-03 22:18 | 29.99800 | -90.27795 | 14 ft | 27 kts | 285° |
| 2026-05-03 22:18 | 29.99851 | -90.28003 | 14 ft | 26 kts | 286° |
| 2026-05-03 22:19 | 29.99826 | -90.28103 | 14 ft | 7 kts | 188° |
| 2026-05-03 22:19 | 29.99797 | -90.28116 | 14 ft | 12 kts | 204° |
| 2026-05-03 22:19 | 29.99755 | -90.28130 | 14 ft | 0 kts | 195° |
| 2026-05-03 22:19 | 29.99733 | -90.28137 | 13 ft | 12 kts | 196° |
| 2026-05-03 22:20 | 29.99656 | -90.28142 | 14 ft | 8 kts | 136° |
| 2026-05-03 22:20 | 29.99620 | -90.28004 | 14 ft | 42 kts | 105° |
| 2026-05-03 22:20 | 29.99484 | -90.27438 | 14 ft | 104 kts | 105° |
| 2026-05-03 22:20 | 29.99236 | -90.26399 | 19 ft | 161 kts | 106° |
| 2026-05-03 22:21 | 29.98889 | -90.25041 | 409 ft | 186 kts | 107° |
| 2026-05-03 22:21 | 29.98499 | -90.23614 | 1167 ft | 195 kts | 107° |
| 2026-05-03 22:21 | 29.98077 | -90.22094 | 1861 ft | 206 kts | 106° |
| 2026-05-03 22:21 | 29.97623 | -90.20461 | 2188 ft | 225 kts | 106° |
| 2026-05-03 22:22 | 29.97120 | -90.18666 | 2597 ft | 241 kts | 107° |
| 2026-05-03 22:22 | 29.96592 | -90.16796 | 3077 ft | 255 kts | 106° |
| 2026-05-03 22:22 | 29.96350 | -90.14732 | 3537 ft | 266 kts | 80° |
| 2026-05-03 22:22 | 29.96994 | -90.12772 | 4338 ft | 262 kts | 53° |
| 2026-05-03 22:23 | 29.98139 | -90.11152 | 5100 ft | 264 kts | 49° |
| 2026-05-03 22:23 | 29.99310 | -90.09505 | 5872 ft | 267 kts | 50° |
| 2026-05-03 22:23 | 30.00467 | -90.07853 | 6604 ft | 270 kts | 50° |
| 2026-05-03 22:23 | 30.01650 | -90.06158 | 7358 ft | 273 kts | 50° |
| 2026-05-03 22:24 | 30.02850 | -90.04436 | 8016 ft | 279 kts | 50° |
| 2026-05-03 22:24 | 30.04070 | -90.02680 | 8735 ft | 282 kts | 49° |
| 2026-05-03 22:24 | 30.05294 | -90.00916 | 9421 ft | 286 kts | 49° |
| 2026-05-03 22:24 | 30.06541 | -89.99120 | 10122 ft | 290 kts | 49° |
| 2026-05-03 22:25 | 30.07827 | -89.97266 | 10509 ft | 306 kts | 48° |
| 2026-05-03 22:25 | 30.09199 | -89.95290 | 10764 ft | 326 kts | 49° |
| 2026-05-03 22:25 | 30.10661 | -89.93182 | 11022 ft | 346 kts | 49° |
| 2026-05-03 22:25 | 30.12215 | -89.90939 | 11272 ft | 366 kts | 49° |
| 2026-05-03 22:26 | 30.13821 | -89.88617 | 11817 ft | 375 kts | 49° |
| 2026-05-03 22:26 | 30.15457 | -89.86248 | 12467 ft | 381 kts | 49° |
| 2026-05-03 22:26 | 30.17112 | -89.83850 | 13163 ft | 384 kts | 48° |
| 2026-05-03 22:26 | 30.18805 | -89.81398 | 13741 ft | 391 kts | 48° |
| 2026-05-03 22:27 | 30.20499 | -89.78944 | 14396 ft | 394 kts | 48° |
| 2026-05-03 22:27 | 30.22193 | -89.76485 | 15050 ft | 396 kts | 48° |
| 2026-05-03 22:27 | 30.23926 | -89.73971 | 15657 ft | 400 kts | 48° |
| 2026-05-03 22:27 | 30.25663 | -89.71447 | 16259 ft | 403 kts | 48° |
| 2026-05-03 22:28 | 30.27404 | -89.68918 | 16827 ft | 407 kts | 48° |
| 2026-05-03 22:28 | 30.29177 | -89.66339 | 17368 ft | 411 kts | 48° |
| 2026-05-03 22:28 | 30.30967 | -89.63736 | 17967 ft | 414 kts | 48° |
| 2026-05-03 22:28 | 30.32746 | -89.61144 | 18436 ft | 419 kts | 48° |
| 2026-05-03 22:29 | 30.34577 | -89.58476 | 18975 ft | 422 kts | 47° |
| 2026-05-03 22:29 | 30.36399 | -89.55819 | 19470 ft | 426 kts | 47° |
| 2026-05-03 22:29 | 30.38255 | -89.53112 | 19913 ft | 431 kts | 47° |
| 2026-05-03 22:29 | 30.40129 | -89.50375 | 20420 ft | 434 kts | 47° |
| 2026-05-03 22:30 | 30.42004 | -89.47636 | 20913 ft | 437 kts | 47° |
| 2026-05-03 22:30 | 30.43909 | -89.44852 | 21373 ft | 442 kts | 47° |
| 2026-05-03 22:30 | 30.45806 | -89.42075 | 21988 ft | 442 kts | 46° |
| 2026-05-03 22:30 | 30.47722 | -89.39271 | 22338 ft | 449 kts | 46° |
| 2026-05-03 22:31 | 30.49676 | -89.36409 | 22939 ft | 449 kts | 46° |
| 2026-05-03 22:31 | 30.51622 | -89.33559 | 23229 ft | 456 kts | 47° |
| 2026-05-03 22:31 | 30.53577 | -89.30688 | 23834 ft | 455 kts | 46° |
| 2026-05-03 22:31 | 30.55560 | -89.27779 | 24176 ft | 462 kts | 46° |
| 2026-05-03 22:32 | 30.57554 | -89.24848 | 24727 ft | 463 kts | 46° |
| 2026-05-03 22:32 | 30.59530 | -89.21944 | 25027 ft | 470 kts | 46° |
| 2026-05-03 22:32 | 30.61578 | -89.18930 | 25493 ft | 473 kts | 47° |
| 2026-05-03 22:32 | 30.63613 | -89.15932 | 25972 ft | 474 kts | 46° |
| 2026-05-03 22:33 | 30.65663 | -89.12912 | 26336 ft | 478 kts | 46° |
| 2026-05-03 22:33 | 30.67721 | -89.09875 | 26754 ft | 481 kts | 46° |
| 2026-05-03 22:33 | 30.69806 | -89.06799 | 27141 ft | 484 kts | 46° |
| 2026-05-03 22:33 | 30.71881 | -89.03734 | 27431 ft | 488 kts | 46° |
| 2026-05-03 22:34 | 30.73975 | -89.00639 | 27854 ft | 489 kts | 46° |
| 2026-05-03 22:34 | 30.76087 | -88.97515 | 28081 ft | 495 kts | 46° |
| 2026-05-03 22:34 | 30.78210 | -88.94371 | 28539 ft | 495 kts | 47° |
| 2026-05-03 22:34 | 30.80331 | -88.91228 | 28781 ft | 500 kts | 46° |
| 2026-05-03 22:35 | 30.82499 | -88.88013 | 29121 ft | 502 kts | 47° |
| 2026-05-03 22:35 | 30.84652 | -88.84816 | 29466 ft | 504 kts | 47° |
| 2026-05-03 22:35 | 30.86814 | -88.81605 | 29714 ft | 508 kts | 46° |
| 2026-05-03 22:35 | 30.88991 | -88.78367 | 30063 ft | 509 kts | 46° |
| 2026-05-03 22:36 | 30.91135 | -88.75176 | 30531 ft | 507 kts | 46° |
| 2026-05-03 22:36 | 30.93334 | -88.71901 | 30843 ft | 508 kts | 46° |
| 2026-05-03 22:36 | 30.95493 | -88.68682 | 31230 ft | 507 kts | 47° |
| 2026-05-03 22:36 | 30.97642 | -88.65475 | 31560 ft | 508 kts | 46° |
| 2026-05-03 22:37 | 30.99826 | -88.62215 | 31939 ft | 506 kts | 46° |
| 2026-05-03 22:37 | 31.02000 | -88.58967 | 32231 ft | 507 kts | 47° |
| 2026-05-03 22:37 | 31.04154 | -88.55747 | 32409 ft | 510 kts | 47° |
| 2026-05-03 22:37 | 31.06341 | -88.52470 | 32849 ft | 506 kts | 47° |
| 2026-05-03 22:38 | 31.08513 | -88.49218 | 33040 ft | 508 kts | 47° |
| 2026-05-03 22:38 | 31.12704 | -88.42549 | 33103 ft | 509 kts | 49° |
| 2026-05-03 22:39 | 31.16851 | -88.35846 | 33100 ft | 508 kts | 49° |
| 2026-05-03 22:39 | 31.21006 | -88.29121 | 33094 ft | 508 kts | 50° |
| 2026-05-03 22:40 | 31.25122 | -88.22449 | 33088 ft | 508 kts | 50° |
| 2026-05-03 22:40 | 31.29263 | -88.15725 | 33086 ft | 506 kts | 50° |
| 2026-05-03 22:41 | 31.33357 | -88.09070 | 33092 ft | 509 kts | 50° |
| 2026-05-03 22:41 | 31.37468 | -88.02371 | 33092 ft | 505 kts | 50° |
| 2026-05-03 22:42 | 31.41578 | -87.95666 | 33099 ft | 508 kts | 50° |
| 2026-05-03 22:42 | 31.45689 | -87.88944 | 33094 ft | 508 kts | 50° |
| 2026-05-03 22:43 | 31.49796 | -87.82210 | 33098 ft | 508 kts | 50° |
| 2026-05-03 22:43 | 31.53873 | -87.75481 | 33096 ft | 505 kts | 50° |
| 2026-05-03 22:44 | 31.57903 | -87.68788 | 33105 ft | 508 kts | 50° |
| 2026-05-03 22:44 | 31.61966 | -87.62027 | 33103 ft | 507 kts | 51° |
| 2026-05-03 22:45 | 31.66005 | -87.55291 | 33102 ft | 506 kts | 51° |
| 2026-05-03 22:45 | 31.70069 | -87.48506 | 33101 ft | 508 kts | 51° |
| 2026-05-03 22:46 | 31.74103 | -87.41756 | 33099 ft | 505 kts | 51° |
| 2026-05-03 22:46 | 31.78158 | -87.34961 | 33108 ft | 508 kts | 51° |
| 2026-05-03 22:47 | 31.82189 | -87.28192 | 33088 ft | 503 kts | 51° |
| 2026-05-03 22:47 | 31.86197 | -87.21455 | 33093 ft | 507 kts | 51° |
| 2026-05-03 22:48 | 31.90233 | -87.14654 | 33092 ft | 505 kts | 52° |
| 2026-05-03 22:48 | 31.94217 | -87.07928 | 33096 ft | 505 kts | 52° |
| 2026-05-03 22:49 | 31.98235 | -87.01137 | 33101 ft | 507 kts | 52° |
| 2026-05-03 22:49 | 32.02250 | -86.94334 | 33093 ft | 504 kts | 52° |
| 2026-05-03 22:50 | 32.06285 | -86.87492 | 32998 ft | 510 kts | 52° |
| 2026-05-03 22:50 | 32.08254 | -86.84141 | 32987 ft | 494 kts | 52° |
| 2026-05-03 22:50 | 32.10161 | -86.80889 | 32979 ft | 472 kts | 51° |
| 2026-05-03 22:50 | 32.12010 | -86.77739 | 32994 ft | 460 kts | 51° |
| 2026-05-03 22:51 | 32.13835 | -86.74635 | 33001 ft | 465 kts | 51° |
| 2026-05-03 22:51 | 32.17567 | -86.68278 | 33063 ft | 477 kts | 52° |
| 2026-05-03 22:52 | 32.21285 | -86.61924 | 33101 ft | 471 kts | 52° |
| 2026-05-03 22:52 | 32.25027 | -86.55521 | 33123 ft | 477 kts | 52° |
| 2026-05-03 22:53 | 32.28842 | -86.48986 | 33111 ft | 489 kts | 52° |
| 2026-05-03 22:53 | 32.32744 | -86.42293 | 33105 ft | 501 kts | 52° |
| 2026-05-03 22:54 | 32.36720 | -86.35472 | 33121 ft | 506 kts | 52° |
| 2026-05-03 22:54 | 32.40715 | -86.28603 | 33091 ft | 503 kts | 53° |
| 2026-05-03 22:55 | 32.44674 | -86.21767 | 33107 ft | 505 kts | 53° |
| 2026-05-03 22:55 | 32.48598 | -86.14964 | 33099 ft | 497 kts | 53° |
| 2026-05-03 22:56 | 32.52447 | -86.08276 | 33093 ft | 485 kts | 53° |
| 2026-05-03 22:56 | 32.54330 | -86.05001 | 32454 ft | 492 kts | 53° |
| 2026-05-03 22:56 | 32.56247 | -86.01663 | 32247 ft | 476 kts | 53° |
| 2026-05-03 22:57 | 32.60010 | -85.95125 | 31695 ft | 497 kts | 53° |
| 2026-05-03 22:57 | 32.61965 | -85.91727 | 31139 ft | 503 kts | 53° |
| 2026-05-03 22:57 | 32.63914 | -85.88331 | 30544 ft | 500 kts | 53° |
| 2026-05-03 22:57 | 32.65862 | -85.84933 | 29948 ft | 497 kts | 53° |
| 2026-05-03 22:58 | 32.67784 | -85.81578 | 29305 ft | 493 kts | 53° |
| 2026-05-03 22:58 | 32.69733 | -85.78177 | 28684 ft | 495 kts | 53° |
| 2026-05-03 22:58 | 32.71656 | -85.74818 | 28036 ft | 498 kts | 53° |
| 2026-05-03 22:58 | 32.73611 | -85.71396 | 27365 ft | 499 kts | 53° |
| 2026-05-03 22:59 | 32.75552 | -85.67997 | 27091 ft | 495 kts | 53° |
| 2026-05-03 22:59 | 32.77480 | -85.64618 | 27107 ft | 499 kts | 53° |
| 2026-05-03 22:59 | 32.79430 | -85.61198 | 27106 ft | 504 kts | 53° |
| 2026-05-03 22:59 | 32.81408 | -85.57724 | 27105 ft | 504 kts | 53° |
| 2026-05-03 23:00 | 32.83362 | -85.54289 | 27104 ft | 504 kts | 53° |
| 2026-05-03 23:00 | 32.85331 | -85.50825 | 27105 ft | 504 kts | 53° |
| 2026-05-03 23:00 | 32.87280 | -85.47392 | 27101 ft | 504 kts | 53° |
| 2026-05-03 23:00 | 32.89260 | -85.43904 | 26851 ft | 512 kts | 53° |
| 2026-05-03 23:01 | 32.91219 | -85.40446 | 26021 ft | 506 kts | 53° |
| 2026-05-03 23:01 | 32.93154 | -85.37024 | 25246 ft | 487 kts | 53° |
| 2026-05-03 23:01 | 32.95008 | -85.33746 | 24472 ft | 479 kts | 54° |
| 2026-05-03 23:01 | 32.96867 | -85.30460 | 23687 ft | 478 kts | 54° |
| 2026-05-03 23:02 | 32.98689 | -85.27231 | 22848 ft | 466 kts | 54° |
| 2026-05-03 23:02 | 33.00481 | -85.24056 | 22341 ft | 460 kts | 54° |
| 2026-05-03 23:02 | 33.02389 | -85.21018 | 22063 ft | 452 kts | 46° |
| 2026-05-03 23:02 | 33.04514 | -85.18236 | 21312 ft | 456 kts | 45° |
| 2026-05-03 23:03 | 33.06645 | -85.15465 | 20525 ft | 457 kts | 45° |
| 2026-05-03 23:03 | 33.08790 | -85.12678 | 19744 ft | 452 kts | 45° |
| 2026-05-03 23:03 | 33.10882 | -85.09963 | 18994 ft | 448 kts | 45° |
| 2026-05-03 23:03 | 33.13000 | -85.07212 | 18227 ft | 445 kts | 45° |
| 2026-05-03 23:04 | 33.15043 | -85.04556 | 17795 ft | 433 kts | 45° |
| 2026-05-03 23:04 | 33.17091 | -85.01893 | 17554 ft | 429 kts | 45° |
| 2026-05-03 23:04 | 33.19112 | -84.99265 | 17054 ft | 433 kts | 45° |
| 2026-05-03 23:04 | 33.21134 | -84.96635 | 16326 ft | 430 kts | 45° |
| 2026-05-03 23:05 | 33.23135 | -84.94029 | 15589 ft | 423 kts | 45° |
| 2026-05-03 23:05 | 33.25097 | -84.91470 | 14836 ft | 417 kts | 45° |
| 2026-05-03 23:05 | 33.27060 | -84.88913 | 14059 ft | 411 kts | 45° |
| 2026-05-03 23:05 | 33.28972 | -84.86415 | 13593 ft | 401 kts | 45° |
| 2026-05-03 23:06 | 33.30842 | -84.83974 | 13387 ft | 400 kts | 45° |
| 2026-05-03 23:06 | 33.32780 | -84.81605 | 13037 ft | 402 kts | 41° |
| 2026-05-03 23:06 | 33.34809 | -84.79275 | 12485 ft | 397 kts | 42° |
| 2026-05-03 23:06 | 33.36727 | -84.77048 | 12019 ft | 381 kts | 41° |
| 2026-05-03 23:07 | 33.38599 | -84.74875 | 11959 ft | 359 kts | 41° |
| 2026-05-03 23:07 | 33.40307 | -84.72885 | 11982 ft | 330 kts | 41° |
| 2026-05-03 23:07 | 33.41880 | -84.71051 | 11981 ft | 305 kts | 41° |
| 2026-05-03 23:07 | 33.43336 | -84.69353 | 11980 ft | 282 kts | 41° |
| 2026-05-03 23:08 | 33.44709 | -84.67752 | 12016 ft | 264 kts | 40° |
| 2026-05-03 23:08 | 33.45989 | -84.66259 | 12022 ft | 250 kts | 40° |
| 2026-05-03 23:08 | 33.47219 | -84.64825 | 11998 ft | 247 kts | 40° |
| 2026-05-03 23:08 | 33.48453 | -84.63387 | 12008 ft | 253 kts | 40° |
| 2026-05-03 23:09 | 33.49725 | -84.61903 | 12002 ft | 256 kts | 40° |
| 2026-05-03 23:09 | 33.50997 | -84.60416 | 11998 ft | 255 kts | 41° |
| 2026-05-03 23:09 | 33.52244 | -84.58888 | 11985 ft | 255 kts | 50° |
| 2026-05-03 23:09 | 33.52971 | -84.56953 | 11718 ft | 261 kts | 78° |
| 2026-05-03 23:10 | 33.53053 | -84.54763 | 11386 ft | 262 kts | 87° |
| 2026-05-03 23:10 | 33.53072 | -84.52611 | 11090 ft | 261 kts | 86° |
| 2026-05-03 23:10 | 33.53088 | -84.50448 | 10719 ft | 259 kts | 87° |
| 2026-05-03 23:10 | 33.53096 | -84.48309 | 10303 ft | 258 kts | 87° |
| 2026-05-03 23:11 | 33.53100 | -84.46146 | 9893 ft | 256 kts | 86° |
| 2026-05-03 23:11 | 33.53102 | -84.44038 | 9473 ft | 255 kts | 87° |
| 2026-05-03 23:11 | 33.53104 | -84.41948 | 9029 ft | 252 kts | 87° |
| 2026-05-03 23:11 | 33.53115 | -84.39835 | 8519 ft | 249 kts | 83° |
| 2026-05-03 23:12 | 33.53298 | -84.37807 | 8043 ft | 246 kts | 81° |
| 2026-05-03 23:12 | 33.53397 | -84.35769 | 7541 ft | 244 kts | 85° |
| 2026-05-03 23:12 | 33.53469 | -84.33755 | 7055 ft | 242 kts | 85° |
| 2026-05-03 23:12 | 33.53548 | -84.31768 | 6569 ft | 240 kts | 85° |
| 2026-05-03 23:13 | 33.53598 | -84.29774 | 6077 ft | 239 kts | 89° |
| 2026-05-03 23:13 | 33.53596 | -84.27801 | 5608 ft | 238 kts | 89° |
| 2026-05-03 23:13 | 33.53713 | -84.25854 | 5347 ft | 234 kts | 76° |
| 2026-05-03 23:13 | 33.54212 | -84.24026 | 5058 ft | 232 kts | 62° |
| 2026-05-03 23:14 | 33.55146 | -84.22505 | 4812 ft | 223 kts | 33° |
| 2026-05-03 23:14 | 33.56548 | -84.21873 | 4545 ft | 216 kts | 2° |
| 2026-05-03 23:14 | 33.58083 | -84.21948 | 4054 ft | 221 kts | 348° |
| 2026-05-03 23:14 | 33.59526 | -84.22450 | 3610 ft | 217 kts | 332° |
| 2026-05-03 23:15 | 33.60646 | -84.23644 | 3328 ft | 212 kts | 302° |
| 2026-05-03 23:15 | 33.61276 | -84.25191 | 3119 ft | 209 kts | 293° |
| 2026-05-03 23:15 | 33.61753 | -84.26810 | 2991 ft | 201 kts | 292° |
| 2026-05-03 23:15 | 33.62277 | -84.28279 | 2997 ft | 183 kts | 295° |
| 2026-05-03 23:16 | 33.62774 | -84.29643 | 2978 ft | 176 kts | 295° |
| 2026-05-03 23:16 | 33.63167 | -84.31079 | 2751 ft | 186 kts | 276° |
| 2026-05-03 23:16 | 33.63170 | -84.32574 | 2493 ft | 172 kts | 271° |
| 2026-05-03 23:16 | 33.63175 | -84.33931 | 2297 ft | 155 kts | 272° |
| 2026-05-03 23:17 | 33.63182 | -84.35161 | 2073 ft | 140 kts | 271° |
| 2026-05-03 23:17 | 33.63183 | -84.36269 | 1884 ft | 127 kts | 271° |
| 2026-05-03 23:17 | 33.63186 | -84.37331 | 1735 ft | 128 kts | 271° |
| 2026-05-03 23:17 | 33.63187 | -84.38421 | 1576 ft | 131 kts | 271° |
| 2026-05-03 23:18 | 33.63181 | -84.39513 | 1427 ft | 129 kts | 271° |
| 2026-05-03 23:18 | 33.63182 | -84.40542 | 1215 ft | 122 kts | 272° |
| 2026-05-03 23:18 | 33.63180 | -84.41614 | 1079 ft | 129 kts | 271° |
| 2026-05-03 23:18 | 33.63187 | -84.42671 | 1000 ft | 119 kts | 269° |
| 2026-05-03 23:19 | 33.63182 | -84.43416 | 1009 ft | 54 kts | 273° |
| 2026-05-03 23:19 | 33.63258 | -84.43697 | 1012 ft | 13 kts | 304° |
| 2026-05-03 23:19 | 33.63293 | -84.43748 | 1013 ft | 13 kts | 303° |
| 2026-05-03 23:19 | 33.63356 | -84.43929 | 1017 ft | 25 kts | 277° |
| 2026-05-03 23:20 | 33.63367 | -84.44129 | 1019 ft | 14 kts | 280° |
| 2026-05-03 23:20 | 33.63432 | -84.44197 | 1020 ft | 12 kts | 356° |
| 2026-05-03 23:20 | 33.63516 | -84.44194 | 1021 ft | 11 kts | 2° |
| 2026-05-03 23:20 | 33.63629 | -84.44180 | 1021 ft | 19 kts | 33° |
| 2026-05-03 23:21 | 33.63662 | -84.44019 | 1019 ft | 22 kts | 90° |
| 2026-05-03 23:21 | 33.63660 | -84.43825 | 1015 ft | 24 kts | 89° |
| 2026-05-03 23:21 | 33.63662 | -84.43618 | 1014 ft | 25 kts | 89° |
| 2026-05-03 23:21 | 33.63715 | -84.43459 | 1012 ft | 21 kts | 11° |
| 2026-05-03 23:22 | 33.64012 | -84.43453 | 1012 ft | 21 kts | 11° |
| 2026-05-03 23:22 | 33.64158 | -84.43412 | 1012 ft | 21 kts | 13° |
| 2026-05-03 23:22 | 33.64270 | -84.43391 | 1012 ft | 4 kts | 7° |
| 2026-05-03 23:23 | 33.64294 | -84.43372 | 1012 ft | 4 kts | 57° |
| 2026-05-03 23:23 | 33.64299 | -84.43344 | 1012 ft | 4 kts | 90° |
| 2026-05-03 23:23 | 33.64300 | -84.43321 | 1012 ft | 0 kts | 90° |